ENGINEERING TRACK TESTING
Weather & Rail Temperature Monitoring

Weather station CREEK

Battle Creek Passenger Sta. (Battle Creek MI)

Measurement History

Home Current History Weekly graphs

,

to download data from the start of , to the end of ,

Conditions for past 24 hours (since 09/01/2026 01:31 AM)

Time Track 1 N rail Track 1 S rail Track 2 N rail Track 2 S rail Outside Air
Temperature
Solar
Radiation
Max. Wind Humidity Air Pressure Rain
SpeedDir
09/02/2026 01:15 AM 73 °F 73 °F 73 °F 73 °F     0 mph ---   30.047 in Hg 0 in
09/02/2026 01:00 AM 73 °F 73 °F 73 °F 73 °F     0 mph ---   30.048 in Hg 0 in
09/02/2026 12:45 AM 73 °F 73 °F 73 °F 73 °F     0 mph ---   30.053 in Hg 0 in
09/02/2026 12:30 AM 73 °F 73 °F 73 °F 73 °F     0 mph ---   30.053 in Hg 0 in
09/02/2026 12:15 AM 73 °F 73 °F 73 °F 73 °F     0 mph ---   30.052 in Hg 0 in
09/02/2026 12:00 AM 74 °F 73 °F 73 °F 73 °F     0 mph ---   30.042 in Hg 0 in
09/01/2026 11:45 PM 74 °F 74 °F 74 °F 74 °F     0 mph ---   30.036 in Hg 0 in
09/01/2026 11:30 PM 74 °F 74 °F 74 °F 74 °F 76.2 °F 0 watt/m2 0 mph --- 93 % 30.036 in Hg 0 in
09/01/2026 11:15 PM 74 °F 74 °F 74 °F 74 °F 76.3 °F 0 watt/m2 0 mph --- 93 % 30.036 in Hg 0 in
09/01/2026 11:00 PM 75 °F 74 °F 74 °F 74 °F 76.6 °F 0 watt/m2 0 mph --- 93 % 30.037 in Hg 0 in
09/01/2026 10:45 PM 75 °F 75 °F 75 °F 75 °F 76.7 °F 0 watt/m2 0 mph --- 93 % 30.04 in Hg 0 in
09/01/2026 10:30 PM 75 °F 75 °F 75 °F 75 °F 76.9 °F 0 watt/m2 0 mph --- 93 % 30.043 in Hg 0 in
09/01/2026 10:15 PM 75 °F 75 °F 75 °F 75 °F 77.1 °F 0 watt/m2 0 mph --- 93 % 30.043 in Hg 0 in
09/01/2026 10:00 PM 76 °F 76 °F 75 °F 76 °F 77.2 °F 0 watt/m2 0 mph --- 93 % 30.034 in Hg 0 in
09/01/2026 09:45 PM 76 °F 76 °F 76 °F 76 °F 77.3 °F 0 watt/m2 2 mph SSE 92 % 30.028 in Hg 0 in
09/01/2026 09:30 PM 76 °F 76 °F 76 °F 77 °F 77.5 °F 0 watt/m2 4 mph S 92 % 30.02 in Hg 0 in
09/01/2026 09:15 PM 77 °F 77 °F 77 °F 78 °F 77.7 °F 0 watt/m2 4 mph SSE 91 % 30.016 in Hg 0.02 in
09/01/2026 09:00 PM 78 °F 78 °F 78 °F 79 °F 78.3 °F 0 watt/m2 3 mph SSE 90 % 30.031 in Hg 0.03 in
09/01/2026 08:45 PM 80 °F 80 °F 80 °F 80 °F 78.8 °F 0 watt/m2 1 mph SSE 88 % 30.034 in Hg 0 in
09/01/2026 08:30 PM 82 °F 82 °F 82 °F 82 °F 79.3 °F 0 watt/m2 6 mph SSE 87 % 30.027 in Hg 0.01 in
09/01/2026 08:15 PM 84 °F 84 °F 84 °F 84 °F 80.3 °F 0 watt/m2 3 mph NW 85 % 30.052 in Hg 0 in
09/01/2026 08:00 PM 85 °F 85 °F 85 °F 86 °F 81.1 °F 5 watt/m2 0 mph --- 84 % 30.048 in Hg 0 in
09/01/2026 07:45 PM 86 °F 86 °F 87 °F 87 °F 81.8 °F 33 watt/m2 0 mph --- 83 % 30.037 in Hg 0 in
09/01/2026 07:30 PM 88 °F 87 °F 88 °F 88 °F 82.5 °F 17 watt/m2 0 mph --- 82 % 30.038 in Hg 0 in
09/01/2026 07:15 PM 89 °F 89 °F 89 °F 90 °F 83.2 °F 25 watt/m2 0 mph --- 78 % 30.032 in Hg 0 in
09/01/2026 07:00 PM 90 °F 90 °F 91 °F 91 °F 83.7 °F 45 watt/m2 0 mph --- 77 % 30.042 in Hg 0 in
09/01/2026 06:45 PM 92 °F 91 °F 92 °F 93 °F 83.7 °F 91 watt/m2 1 mph NW 76 % 30.057 in Hg 0 in
09/01/2026 06:30 PM 92 °F 92 °F 93 °F 93 °F 83.5 °F 126 watt/m2 3 mph NNW 74 % 30.062 in Hg 0 in
09/01/2026 06:15 PM 91 °F 91 °F 92 °F 93 °F 83.1 °F 193 watt/m2 4 mph WNW 74 % 30.056 in Hg 0 in
09/01/2026 06:00 PM 91 °F 91 °F 91 °F 92 °F 82.5 °F 191 watt/m2 5 mph WNW 75 % 30.05 in Hg 0 in
09/01/2026 05:45 PM 90 °F 90 °F 91 °F 92 °F 82.2 °F 78 watt/m2 5 mph W 74 % 30.047 in Hg 0 in
09/01/2026 05:30 PM 92 °F 92 °F 93 °F 93 °F 82.5 °F 70 watt/m2 9 mph NNW 73 % 30.049 in Hg 0 in
09/01/2026 05:15 PM 93 °F 93 °F 94 °F 95 °F 82.6 °F 151 watt/m2 6 mph SW 73 % 30.042 in Hg 0 in
09/01/2026 05:00 PM 94 °F 94 °F 95 °F 96 °F 82.7 °F 161 watt/m2 6 mph S 75 % 30.033 in Hg 0 in
09/01/2026 04:45 PM 94 °F 95 °F 96 °F 96 °F 82.9 °F 157 watt/m2 6 mph NW 76 % 30.034 in Hg 0 in
09/01/2026 04:30 PM 96 °F 96 °F 97 °F 98 °F 83.3 °F 209 watt/m2 6 mph NW 79 % 30.03 in Hg 0 in
09/01/2026 04:15 PM 95 °F 96 °F 97 °F 98 °F 83.3 °F 205 watt/m2 4 mph SSE 81 % 30.019 in Hg 0 in
09/01/2026 04:00 PM 95 °F 96 °F 97 °F 98 °F 83.3 °F 137 watt/m2 6 mph SE 81 % 30.031 in Hg 0 in
09/01/2026 03:45 PM 98 °F 98 °F 100 °F 101 °F 84.3 °F 48 watt/m2 9 mph NNW 78 % 30.042 in Hg 0 in
09/01/2026 03:30 PM 102 °F 102 °F 104 °F 105 °F 85.6 °F 74 watt/m2 8 mph S 75 % 30.049 in Hg 0 in
09/01/2026 03:15 PM 105 °F 105 °F 107 °F 109 °F 86.8 °F 162 watt/m2 8 mph SE 73 % 30.041 in Hg 0 in
09/01/2026 03:00 PM 108 °F 108 °F 110 °F 112 °F 88.1 °F 246 watt/m2 10 mph SE 71 % 30.05 in Hg 0 in
09/01/2026 02:45 PM 110 °F 110 °F 113 °F 113 °F 89.4 °F 590 watt/m2 10 mph NW 71 % 30.05 in Hg 0 in
09/01/2026 02:30 PM 110 °F 110 °F 112 °F 113 °F 89.3 °F 549 watt/m2 9 mph NW 71 % 30.054 in Hg 0 in
09/01/2026 02:15 PM 110 °F 110 °F 113 °F 114 °F 89.4 °F 276 watt/m2 10 mph SSW 69 % 30.055 in Hg 0 in
09/01/2026 02:00 PM 111 °F 111 °F 114 °F 114 °F 90.4 °F 862 watt/m2 11 mph SSE 69 % 30.049 in Hg 0 in
09/01/2026 01:45 PM 110 °F 110 °F 113 °F 113 °F 90.1 °F 472 watt/m2 11 mph ESE 68 % 30.053 in Hg 0 in
09/01/2026 01:30 PM 109 °F 110 °F 111 °F 112 °F 89.9 °F 783 watt/m2 9 mph SE 68 % 30.047 in Hg 0 in
09/01/2026 01:15 PM 107 °F 108 °F 110 °F 111 °F 89.4 °F 766 watt/m2 9 mph NW 69 % 30.05 in Hg 0 in
09/01/2026 01:00 PM 105 °F 106 °F 108 °F 109 °F 88.6 °F 748 watt/m2 9 mph NW 70 % 30.054 in Hg 0 in
09/01/2026 12:45 PM 103 °F 104 °F 106 °F 107 °F 87.9 °F 721 watt/m2 10 mph S 71 % 30.047 in Hg 0 in
09/01/2026 12:30 PM 102 °F 102 °F 104 °F 105 °F 87.3 °F 690 watt/m2 7 mph SE 72 % 30.048 in Hg 0 in
09/01/2026 12:15 PM 102 °F 100 °F 103 °F 105 °F 86.6 °F 733 watt/m2 7 mph ESE 73 % 30.048 in Hg 0 in
09/01/2026 12:00 PM 98 °F 98 °F 101 °F 102 °F 85.5 °F 655 watt/m2 5 mph SSE 75 % 30.054 in Hg 0 in
09/01/2026 11:45 AM 97 °F 98 °F 100 °F 101 °F 85.3 °F 326 watt/m2 8 mph SE 75 % 30.057 in Hg 0 in
09/01/2026 11:30 AM 96 °F 97 °F 99 °F 100 °F 84.9 °F 490 watt/m2 5 mph SSE 76 % 30.059 in Hg 0 in
09/01/2026 11:15 AM 95 °F 95 °F 97 °F 99 °F 84.2 °F 448 watt/m2 5 mph SE 76 % 30.062 in Hg 0 in
09/01/2026 11:00 AM 93 °F 93 °F 95 °F 98 °F 83.2 °F 536 watt/m2 5 mph SE 78 % 30.058 in Hg 0 in
09/01/2026 10:45 AM 90 °F 89 °F 92 °F 95 °F 82 °F 489 watt/m2 5 mph NW 80 % 30.057 in Hg 0 in
09/01/2026 10:30 AM 86 °F 86 °F 89 °F 91 °F 80.9 °F 446 watt/m2 4 mph SE 81 % 30.066 in Hg 0 in
09/01/2026 10:15 AM 83 °F 83 °F 86 °F 88 °F 79.7 °F 441 watt/m2 8 mph SE 83 % 30.062 in Hg 0 in
09/01/2026 10:00 AM 78 °F 79 °F 81 °F 83 °F 78.4 °F 228 watt/m2 5 mph S 86 % 30.065 in Hg 0 in
09/01/2026 09:45 AM 77 °F 76 °F 77 °F 78 °F 77.3 °F 243 watt/m2 6 mph NW 88 % 30.062 in Hg 0 in
09/01/2026 09:30 AM 75 °F 74 °F 74 °F 75 °F 75.5 °F 245 watt/m2 6 mph WNW 93 % 30.066 in Hg 0 in
09/01/2026 09:15 AM 73 °F 72 °F 72 °F 73 °F 73.8 °F 241 watt/m2 5 mph SE 95 % 30.069 in Hg 0 in
09/01/2026 09:00 AM 71 °F 70 °F 70 °F 72 °F 72.6 °F 125 watt/m2 5 mph SE 95 % 30.071 in Hg 0 in
09/01/2026 08:45 AM 69 °F 69 °F 69 °F 69 °F 71.5 °F 48 watt/m2 0 mph --- 95 % 30.076 in Hg 0 in
09/01/2026 08:30 AM 68 °F 68 °F 68 °F 68 °F 70.9 °F 47 watt/m2 0 mph --- 95 % 30.073 in Hg 0 in
09/01/2026 08:15 AM 67 °F 67 °F 67 °F 67 °F 70.2 °F 39 watt/m2 0 mph --- 95 % 30.076 in Hg 0 in
09/01/2026 08:00 AM 67 °F 66 °F 66 °F 66 °F 69.8 °F 27 watt/m2 0 mph --- 94 % 30.061 in Hg 0 in
09/01/2026 07:45 AM 66 °F 66 °F 66 °F 66 °F     0 mph ---   30.059 in Hg 0 in
09/01/2026 07:30 AM 66 °F 66 °F 65 °F 66 °F     0 mph ---   30.059 in Hg 0 in
09/01/2026 07:15 AM 66 °F 65 °F 65 °F 65 °F     0 mph ---   30.058 in Hg 0 in
09/01/2026 07:00 AM 66 °F 65 °F 65 °F 65 °F     0 mph ---   30.059 in Hg 0 in
09/01/2026 06:45 AM 65 °F 65 °F 65 °F 65 °F     0 mph ---   30.058 in Hg 0 in
09/01/2026 06:30 AM 66 °F 65 °F 65 °F 65 °F     0 mph ---   30.052 in Hg 0 in
09/01/2026 06:15 AM 66 °F 65 °F 65 °F 65 °F     0 mph ---   30.051 in Hg 0 in
09/01/2026 06:00 AM 66 °F 66 °F 65 °F 65 °F     0 mph ---   30.047 in Hg 0 in
09/01/2026 05:45 AM 66 °F 66 °F 65 °F 65 °F     0 mph ---   30.051 in Hg 0 in
09/01/2026 05:30 AM 66 °F 66 °F 66 °F 66 °F     0 mph ---   30.044 in Hg 0 in
09/01/2026 05:15 AM 66 °F 66 °F 66 °F 66 °F     0 mph ---   30.048 in Hg 0 in
09/01/2026 05:00 AM 67 °F 66 °F 66 °F 66 °F     0 mph ---   30.045 in Hg 0 in
09/01/2026 04:45 AM 67 °F 66 °F 66 °F 66 °F     0 mph ---   30.043 in Hg 0 in
09/01/2026 04:30 AM 67 °F 67 °F 66 °F 66 °F     0 mph ---   30.04 in Hg 0 in
09/01/2026 04:15 AM 67 °F 67 °F 67 °F 67 °F     0 mph ---   30.039 in Hg 0 in
09/01/2026 04:00 AM 67 °F 67 °F 67 °F 67 °F     0 mph ---   30.037 in Hg 0 in
09/01/2026 03:45 AM 68 °F 67 °F 67 °F 67 °F     0 mph ---   30.039 in Hg 0 in
09/01/2026 03:30 AM 68 °F 68 °F 67 °F 67 °F     0 mph ---   30.039 in Hg 0 in
09/01/2026 03:15 AM 68 °F 68 °F 68 °F 68 °F     0 mph ---   30.043 in Hg 0 in
09/01/2026 03:00 AM 68 °F 68 °F 68 °F 68 °F     0 mph ---   30.044 in Hg 0 in
09/01/2026 02:45 AM 69 °F 68 °F 68 °F 68 °F     0 mph ---   30.041 in Hg 0 in
09/01/2026 02:30 AM 69 °F 69 °F 68 °F 68 °F     0 mph ---   30.041 in Hg 0 in
09/01/2026 02:15 AM 69 °F 69 °F 69 °F 69 °F     0 mph ---   30.047 in Hg 0 in
09/01/2026 02:00 AM 69 °F 69 °F 69 °F 69 °F     0 mph ---   30.045 in Hg 0 in
09/01/2026 01:45 AM 70 °F 69 °F 69 °F 69 °F     0 mph ---   30.044 in Hg 0 in

Alarms Station information Line AM Subdivision NILES